Terminal Aerodrome Forecast
Issued by NWS

Home | Current Version | Previous Version | Text Only | Print | Product List | Glossary On
Versions: 1 2 3 4 5 6 7 8 9 10 11 12 13 14 15 16 17 18 19 20 21 22 23 24
000
FTUS45 KREV 041136
TAFCXP
TAF
KCXP 041136Z 0412/0512 VRB04KT P6SM SCT200
     FM041900 10009KT P6SM SCT120 BKN200
     FM042100 25013G22KT P6SM SCT120 BKN200
     FM050400 VRB04KT P6SM SCT100 BKN150=

USA.gov is the U.S. government's official web portal to all federal, state and local government web resources and services.